sensor_id;sensor_type;location;lat;lon;timestamp;P1;durP1;ratioP1;P2;durP2;ratioP2
6937;SDS011;40040;42.706;23.372;2022-09-09T00:02:25;11.77;;;9.52;;
6937;SDS011;40040;42.706;23.372;2022-09-09T00:04:58;12.60;;;9.35;;
6937;SDS011;40040;42.706;23.372;2022-09-09T00:07:31;11.55;;;9.27;;
6937;SDS011;40040;42.706;23.372;2022-09-09T00:10:12;11.00;;;9.13;;
6937;SDS011;40040;42.706;23.372;2022-09-09T00:12:47;12.43;;;9.20;;
6937;SDS011;40040;42.706;23.372;2022-09-09T00:15:24;13.63;;;10.07;;
6937;SDS011;40040;42.706;23.372;2022-09-09T00:17:58;11.93;;;9.63;;
6937;SDS011;40040;42.706;23.372;2022-09-09T00:20:35;12.57;;;10.23;;
6937;SDS011;40040;42.706;23.372;2022-09-09T00:23:12;12.25;;;9.63;;
6937;SDS011;40040;42.706;23.372;2022-09-09T00:25:42;12.50;;;10.00;;
6937;SDS011;40040;42.706;23.372;2022-09-09T00:28:17;11.40;;;10.18;;
6937;SDS011;40040;42.706;23.372;2022-09-09T00:30:47;14.10;;;10.35;;
6937;SDS011;40040;42.706;23.372;2022-09-09T00:33:15;11.25;;;10.05;;
6937;SDS011;40040;42.706;23.372;2022-09-09T00:35:48;13.43;;;10.60;;
6937;SDS011;40040;42.706;23.372;2022-09-09T00:38:17;12.55;;;10.30;;
6937;SDS011;40040;42.706;23.372;2022-09-09T00:40:49;13.98;;;10.18;;
6937;SDS011;40040;42.706;23.372;2022-09-09T00:43:24;12.32;;;10.70;;
6937;SDS011;40040;42.706;23.372;2022-09-09T00:48:59;12.60;;;9.90;;
6937;SDS011;40040;42.706;23.372;2022-09-09T00:51:35;12.38;;;9.75;;
6937;SDS011;40040;42.706;23.372;2022-09-09T00:54:19;10.68;;;9.57;;
6937;SDS011;40040;42.706;23.372;2022-09-09T00:57:02;12.38;;;9.93;;
6937;SDS011;40040;42.706;23.372;2022-09-09T00:59:41;12.65;;;10.02;;
6937;SDS011;40040;42.706;23.372;2022-09-09T01:02:13;11.65;;;10.30;;
6937;SDS011;40040;42.706;23.372;2022-09-09T01:04:49;13.27;;;10.48;;
6937;SDS011;40040;42.706;23.372;2022-09-09T01:07:16;12.98;;;10.63;;
6937;SDS011;40040;42.706;23.372;2022-09-09T01:09:50;14.52;;;10.88;;
6937;SDS011;40040;42.706;23.372;2022-09-09T01:12:24;12.77;;;11.10;;
6937;SDS011;40040;42.706;23.372;2022-09-09T01:14:56;11.95;;;10.07;;
6937;SDS011;40040;42.706;23.372;2022-09-09T01:17:34;11.68;;;10.27;;
6937;SDS011;40040;42.706;23.372;2022-09-09T01:20:14;13.25;;;11.10;;
6937;SDS011;40040;42.706;23.372;2022-09-09T01:22:50;12.70;;;10.65;;
6937;SDS011;40040;42.706;23.372;2022-09-09T01:25:30;11.68;;;10.45;;
6937;SDS011;40040;42.706;23.372;2022-09-09T01:28:32;14.13;;;10.68;;
6937;SDS011;40040;42.706;23.372;2022-09-09T01:31:02;11.80;;;10.55;;
6937;SDS011;40040;42.706;23.372;2022-09-09T01:33:30;12.32;;;10.75;;
6937;SDS011;40040;42.706;23.372;2022-09-09T01:35:58;11.88;;;10.63;;
6937;SDS011;40040;42.706;23.372;2022-09-09T01:38:28;12.27;;;10.77;;
6937;SDS011;40040;42.706;23.372;2022-09-09T01:40:57;11.45;;;10.32;;
6937;SDS011;40040;42.706;23.372;2022-09-09T01:43:25;12.57;;;10.70;;
6937;SDS011;40040;42.706;23.372;2022-09-09T01:45:55;11.68;;;10.45;;
6937;SDS011;40040;42.706;23.372;2022-09-09T01:48:25;12.25;;;10.95;;
6937;SDS011;40040;42.706;23.372;2022-09-09T01:50:52;11.82;;;10.60;;
6937;SDS011;40040;42.706;23.372;2022-09-09T01:53:19;14.23;;;10.38;;
6937;SDS011;40040;42.706;23.372;2022-09-09T01:55:48;12.38;;;10.75;;
6937;SDS011;40040;42.706;23.372;2022-09-09T01:58:28;12.25;;;11.02;;
6937;SDS011;40040;42.706;23.372;2022-09-09T02:01:04;14.07;;;10.88;;
6937;SDS011;40040;42.706;23.372;2022-09-09T02:03:36;12.65;;;10.77;;
6937;SDS011;40040;42.706;23.372;2022-09-09T02:06:05;13.13;;;10.57;;
6937;SDS011;40040;42.706;23.372;2022-09-09T02:08:42;12.82;;;10.82;;
6937;SDS011;40040;42.706;23.372;2022-09-09T02:11:12;12.23;;;10.75;;
6937;SDS011;40040;42.706;23.372;2022-09-09T02:13:40;14.55;;;11.80;;
6937;SDS011;40040;42.706;23.372;2022-09-09T02:16:12;14.07;;;11.50;;
6937;SDS011;40040;42.706;23.372;2022-09-09T02:18:47;15.40;;;11.45;;
6937;SDS011;40040;42.706;23.372;2022-09-09T02:21:16;14.20;;;11.65;;
6937;SDS011;40040;42.706;23.372;2022-09-09T02:23:43;14.90;;;11.25;;
6937;SDS011;40040;42.706;23.372;2022-09-09T02:26:14;12.82;;;10.38;;
6937;SDS011;40040;42.706;23.372;2022-09-09T02:28:46;15.90;;;11.15;;
6937;SDS011;40040;42.706;23.372;2022-09-09T02:31:17;14.27;;;11.40;;
6937;SDS011;40040;42.706;23.372;2022-09-09T02:33:50;12.27;;;11.00;;
6937;SDS011;40040;42.706;23.372;2022-09-09T02:36:20;13.38;;;11.32;;
6937;SDS011;40040;42.706;23.372;2022-09-09T02:38:50;13.63;;;10.80;;
6937;SDS011;40040;42.706;23.372;2022-09-09T02:41:19;12.82;;;11.23;;
6937;SDS011;40040;42.706;23.372;2022-09-09T02:43:50;17.58;;;11.82;;
6937;SDS011;40040;42.706;23.372;2022-09-09T02:46:27;13.15;;;11.60;;
6937;SDS011;40040;42.706;23.372;2022-09-09T02:49:06;15.75;;;12.07;;
6937;SDS011;40040;42.706;23.372;2022-09-09T02:51:37;13.73;;;12.05;;
6937;SDS011;40040;42.706;23.372;2022-09-09T02:54:14;14.82;;;11.93;;
6937;SDS011;40040;42.706;23.372;2022-09-09T02:56:48;15.35;;;12.43;;
6937;SDS011;40040;42.706;23.372;2022-09-09T02:59:19;13.68;;;11.30;;
6937;SDS011;40040;42.706;23.372;2022-09-09T03:01:49;14.40;;;11.90;;
6937;SDS011;40040;42.706;23.372;2022-09-09T03:04:16;14.75;;;12.05;;
6937;SDS011;40040;42.706;23.372;2022-09-09T03:06:42;15.85;;;11.95;;
6937;SDS011;40040;42.706;23.372;2022-09-09T03:09:09;14.45;;;12.65;;
6937;SDS011;40040;42.706;23.372;2022-09-09T03:11:36;14.07;;;12.07;;
6937;SDS011;40040;42.706;23.372;2022-09-09T03:14:03;14.63;;;12.50;;
6937;SDS011;40040;42.706;23.372;2022-09-09T03:16:30;16.30;;;13.32;;
6937;SDS011;40040;42.706;23.372;2022-09-09T03:19:00;15.32;;;13.52;;
6937;SDS011;40040;42.706;23.372;2022-09-09T03:21:26;16.60;;;13.27;;
6937;SDS011;40040;42.706;23.372;2022-09-09T03:23:53;14.23;;;12.73;;
6937;SDS011;40040;42.706;23.372;2022-09-09T03:26:20;17.75;;;13.13;;
6937;SDS011;40040;42.706;23.372;2022-09-09T03:28:48;15.20;;;13.05;;
6937;SDS011;40040;42.706;23.372;2022-09-09T03:31:17;19.85;;;13.75;;
6937;SDS011;40040;42.706;23.372;2022-09-09T03:33:44;16.75;;;13.10;;
6937;SDS011;40040;42.706;23.372;2022-09-09T03:36:13;16.90;;;13.60;;
6937;SDS011;40040;42.706;23.372;2022-09-09T03:38:40;16.02;;;13.25;;
6937;SDS011;40040;42.706;23.372;2022-09-09T03:41:07;17.88;;;13.57;;
6937;SDS011;40040;42.706;23.372;2022-09-09T03:43:34;17.20;;;13.77;;
6937;SDS011;40040;42.706;23.372;2022-09-09T03:46:01;18.95;;;12.68;;
6937;SDS011;40040;42.706;23.372;2022-09-09T03:48:28;19.00;;;13.93;;
6937;SDS011;40040;42.706;23.372;2022-09-09T03:50:55;16.17;;;13.43;;
6937;SDS011;40040;42.706;23.372;2022-09-09T03:53:27;17.45;;;13.05;;
6937;SDS011;40040;42.706;23.372;2022-09-09T03:55:55;18.02;;;13.10;;
6937;SDS011;40040;42.706;23.372;2022-09-09T03:58:29;15.27;;;13.02;;
6937;SDS011;40040;42.706;23.372;2022-09-09T04:01:08;17.35;;;14.27;;
6937;SDS011;40040;42.706;23.372;2022-09-09T04:03:38;16.27;;;13.43;;
6937;SDS011;40040;42.706;23.372;2022-09-09T04:06:06;16.20;;;12.57;;
6937;SDS011;40040;42.706;23.372;2022-09-09T04:08:37;16.48;;;13.13;;
6937;SDS011;40040;42.706;23.372;2022-09-09T04:11:05;19.27;;;13.15;;
6937;SDS011;40040;42.706;23.372;2022-09-09T04:13:35;18.00;;;13.93;;
6937;SDS011;40040;42.706;23.372;2022-09-09T04:16:04;17.65;;;13.93;;
6937;SDS011;40040;42.706;23.372;2022-09-09T04:18:32;25.83;;;16.83;;
6937;SDS011;40040;42.706;23.372;2022-09-09T04:20:59;23.77;;;15.40;;
6937;SDS011;40040;42.706;23.372;2022-09-09T04:23:27;23.77;;;13.48;;
6937;SDS011;40040;42.706;23.372;2022-09-09T04:25:57;20.75;;;13.98;;
6937;SDS011;40040;42.706;23.372;2022-09-09T04:28:26;18.77;;;13.55;;
6937;SDS011;40040;42.706;23.372;2022-09-09T04:30:55;20.88;;;13.63;;
6937;SDS011;40040;42.706;23.372;2022-09-09T04:33:23;16.05;;;12.90;;
6937;SDS011;40040;42.706;23.372;2022-09-09T04:35:52;19.65;;;13.25;;
6937;SDS011;40040;42.706;23.372;2022-09-09T04:38:21;18.60;;;13.55;;
6937;SDS011;40040;42.706;23.372;2022-09-09T04:40:50;18.75;;;14.52;;
6937;SDS011;40040;42.706;23.372;2022-09-09T04:43:20;16.60;;;13.10;;
6937;SDS011;40040;42.706;23.372;2022-09-09T04:45:48;19.58;;;12.98;;
6937;SDS011;40040;42.706;23.372;2022-09-09T04:48:17;18.55;;;13.95;;
6937;SDS011;40040;42.706;23.372;2022-09-09T04:50:53;17.20;;;14.52;;
6937;SDS011;40040;42.706;23.372;2022-09-09T04:53:20;17.95;;;14.25;;
6937;SDS011;40040;42.706;23.372;2022-09-09T04:55:48;20.25;;;13.88;;
6937;SDS011;40040;42.706;23.372;2022-09-09T04:58:15;20.40;;;13.73;;
6937;SDS011;40040;42.706;23.372;2022-09-09T05:00:44;19.23;;;13.48;;
6937;SDS011;40040;42.706;23.372;2022-09-09T05:03:12;17.52;;;14.15;;
6937;SDS011;40040;42.706;23.372;2022-09-09T05:05:39;22.02;;;13.15;;
6937;SDS011;40040;42.706;23.372;2022-09-09T05:08:07;18.48;;;13.43;;
6937;SDS011;40040;42.706;23.372;2022-09-09T05:10:36;19.48;;;13.38;;
6937;SDS011;40040;42.706;23.372;2022-09-09T05:13:04;19.27;;;13.55;;
6937;SDS011;40040;42.706;23.372;2022-09-09T05:15:31;15.75;;;12.85;;
6937;SDS011;40040;42.706;23.372;2022-09-09T05:18:03;18.85;;;12.70;;
6937;SDS011;40040;42.706;23.372;2022-09-09T05:20:33;17.02;;;12.60;;
6937;SDS011;40040;42.706;23.372;2022-09-09T05:23:00;19.85;;;13.57;;
6937;SDS011;40040;42.706;23.372;2022-09-09T05:25:27;15.38;;;12.90;;
6937;SDS011;40040;42.706;23.372;2022-09-09T05:27:54;16.00;;;13.43;;
6937;SDS011;40040;42.706;23.372;2022-09-09T05:30:22;15.88;;;13.20;;
6937;SDS011;40040;42.706;23.372;2022-09-09T05:32:51;19.67;;;13.13;;
6937;SDS011;40040;42.706;23.372;2022-09-09T05:35:20;22.35;;;13.60;;
6937;SDS011;40040;42.706;23.372;2022-09-09T05:37:48;16.35;;;13.55;;
6937;SDS011;40040;42.706;23.372;2022-09-09T05:40:16;20.42;;;13.82;;
6937;SDS011;40040;42.706;23.372;2022-09-09T05:42:44;15.90;;;13.05;;
6937;SDS011;40040;42.706;23.372;2022-09-09T05:45:11;20.40;;;14.13;;
6937;SDS011;40040;42.706;23.372;2022-09-09T05:47:38;18.85;;;12.90;;
6937;SDS011;40040;42.706;23.372;2022-09-09T05:50:05;16.58;;;12.52;;
6937;SDS011;40040;42.706;23.372;2022-09-09T05:52:40;17.10;;;12.82;;
6937;SDS011;40040;42.706;23.372;2022-09-09T05:55:08;15.13;;;10.45;;
6937;SDS011;40040;42.706;23.372;2022-09-09T05:57:36;17.20;;;11.57;;
6937;SDS011;40040;42.706;23.372;2022-09-09T06:00:04;15.38;;;10.60;;
6937;SDS011;40040;42.706;23.372;2022-09-09T06:02:32;15.18;;;11.18;;
6937;SDS011;40040;42.706;23.372;2022-09-09T06:05:02;14.52;;;11.52;;
6937;SDS011;40040;42.706;23.372;2022-09-09T06:07:30;17.08;;;11.98;;
6937;SDS011;40040;42.706;23.372;2022-09-09T06:09:58;10.57;;;8.05;;
6937;SDS011;40040;42.706;23.372;2022-09-09T06:12:25;9.75;;;7.70;;
6937;SDS011;40040;42.706;23.372;2022-09-09T06:14:53;7.93;;;6.80;;
6937;SDS011;40040;42.706;23.372;2022-09-09T06:17:20;11.38;;;7.28;;
6937;SDS011;40040;42.706;23.372;2022-09-09T06:19:48;10.45;;;8.35;;
6937;SDS011;40040;42.706;23.372;2022-09-09T06:22:16;16.83;;;11.05;;
6937;SDS011;40040;42.706;23.372;2022-09-09T06:24:44;14.23;;;11.07;;
6937;SDS011;40040;42.706;23.372;2022-09-09T06:27:12;8.52;;;7.60;;
6937;SDS011;40040;42.706;23.372;2022-09-09T06:29:41;8.18;;;7.38;;
6937;SDS011;40040;42.706;23.372;2022-09-09T06:32:08;11.77;;;7.03;;
6937;SDS011;40040;42.706;23.372;2022-09-09T06:34:35;9.05;;;7.93;;
6937;SDS011;40040;42.706;23.372;2022-09-09T06:37:03;10.32;;;8.00;;
6937;SDS011;40040;42.706;23.372;2022-09-09T06:39:31;7.80;;;7.10;;
6937;SDS011;40040;42.706;23.372;2022-09-09T06:41:58;9.50;;;7.35;;
6937;SDS011;40040;42.706;23.372;2022-09-09T06:44:27;8.32;;;7.53;;
6937;SDS011;40040;42.706;23.372;2022-09-09T06:46:58;8.07;;;7.15;;
6937;SDS011;40040;42.706;23.372;2022-09-09T06:49:26;10.35;;;7.78;;
6937;SDS011;40040;42.706;23.372;2022-09-09T06:51:53;8.68;;;7.25;;
6937;SDS011;40040;42.706;23.372;2022-09-09T06:54:20;7.65;;;6.85;;
6937;SDS011;40040;42.706;23.372;2022-09-09T06:56:49;8.80;;;7.40;;
6937;SDS011;40040;42.706;23.372;2022-09-09T06:59:16;9.80;;;7.07;;
6937;SDS011;40040;42.706;23.372;2022-09-09T07:01:44;8.10;;;7.25;;
6937;SDS011;40040;42.706;23.372;2022-09-09T07:04:12;9.13;;;7.40;;
6937;SDS011;40040;42.706;23.372;2022-09-09T07:06:40;9.35;;;6.93;;
6937;SDS011;40040;42.706;23.372;2022-09-09T07:09:09;9.05;;;7.22;;
6937;SDS011;40040;42.706;23.372;2022-09-09T07:11:38;7.38;;;6.68;;
6937;SDS011;40040;42.706;23.372;2022-09-09T07:14:07;8.70;;;6.40;;
6937;SDS011;40040;42.706;23.372;2022-09-09T07:16:37;6.95;;;6.25;;
6937;SDS011;40040;42.706;23.372;2022-09-09T07:19:06;7.75;;;6.90;;
6937;SDS011;40040;42.706;23.372;2022-09-09T07:21:37;7.75;;;7.00;;
6937;SDS011;40040;42.706;23.372;2022-09-09T07:24:06;6.97;;;6.38;;
6937;SDS011;40040;42.706;23.372;2022-09-09T07:26:35;7.10;;;6.40;;
6937;SDS011;40040;42.706;23.372;2022-09-09T07:29:03;7.50;;;6.80;;
6937;SDS011;40040;42.706;23.372;2022-09-09T07:31:31;7.35;;;6.63;;
6937;SDS011;40040;42.706;23.372;2022-09-09T07:34:00;7.60;;;6.75;;
6937;SDS011;40040;42.706;23.372;2022-09-09T07:36:30;9.70;;;6.90;;
6937;SDS011;40040;42.706;23.372;2022-09-09T07:38:59;7.38;;;6.60;;
6937;SDS011;40040;42.706;23.372;2022-09-09T07:41:29;8.05;;;6.55;;
6937;SDS011;40040;42.706;23.372;2022-09-09T07:43:59;7.13;;;6.45;;
6937;SDS011;40040;42.706;23.372;2022-09-09T07:46:31;7.95;;;6.63;;
6937;SDS011;40040;42.706;23.372;2022-09-09T07:48:59;8.68;;;6.28;;
6937;SDS011;40040;42.706;23.372;2022-09-09T07:51:28;8.30;;;6.40;;
6937;SDS011;40040;42.706;23.372;2022-09-09T07:53:59;7.53;;;6.43;;
6937;SDS011;40040;42.706;23.372;2022-09-09T07:56:27;7.80;;;7.05;;
6937;SDS011;40040;42.706;23.372;2022-09-09T07:58:56;8.32;;;7.15;;
6937;SDS011;40040;42.706;23.372;2022-09-09T08:01:24;12.20;;;6.45;;
6937;SDS011;40040;42.706;23.372;2022-09-09T08:03:54;7.82;;;7.07;;
6937;SDS011;40040;42.706;23.372;2022-09-09T08:06:24;7.97;;;7.18;;
6937;SDS011;40040;42.706;23.372;2022-09-09T08:08:53;7.80;;;7.00;;
6937;SDS011;40040;42.706;23.372;2022-09-09T08:11:21;7.50;;;6.70;;
6937;SDS011;40040;42.706;23.372;2022-09-09T08:13:53;7.82;;;6.50;;
6937;SDS011;40040;42.706;23.372;2022-09-09T08:16:21;8.40;;;6.45;;
6937;SDS011;40040;42.706;23.372;2022-09-09T08:18:50;8.70;;;6.65;;
6937;SDS011;40040;42.706;23.372;2022-09-09T08:21:20;7.50;;;6.43;;
6937;SDS011;40040;42.706;23.372;2022-09-09T08:23:49;7.15;;;6.45;;
6937;SDS011;40040;42.706;23.372;2022-09-09T08:26:20;6.57;;;6.07;;
6937;SDS011;40040;42.706;23.372;2022-09-09T08:28:49;7.55;;;6.43;;
6937;SDS011;40040;42.706;23.372;2022-09-09T08:31:18;7.28;;;6.57;;
6937;SDS011;40040;42.706;23.372;2022-09-09T08:33:46;7.65;;;6.75;;
6937;SDS011;40040;42.706;23.372;2022-09-09T08:36:14;7.70;;;6.07;;
6937;SDS011;40040;42.706;23.372;2022-09-09T08:38:47;7.18;;;6.47;;
6937;SDS011;40040;42.706;23.372;2022-09-09T08:44:06;7.07;;;6.38;;
6937;SDS011;40040;42.706;23.372;2022-09-09T08:46:38;7.75;;;6.78;;
6937;SDS011;40040;42.706;23.372;2022-09-09T08:49:31;9.18;;;6.22;;
6937;SDS011;40040;42.706;23.372;2022-09-09T08:52:12;7.97;;;6.70;;
6937;SDS011;40040;42.706;23.372;2022-09-09T08:54:44;11.20;;;8.60;;
6937;SDS011;40040;42.706;23.372;2022-09-09T08:57:13;9.15;;;6.75;;
6937;SDS011;40040;42.706;23.372;2022-09-09T08:59:45;7.13;;;6.45;;
6937;SDS011;40040;42.706;23.372;2022-09-09T09:02:14;9.43;;;7.05;;
6937;SDS011;40040;42.706;23.372;2022-09-09T09:05:04;8.10;;;6.93;;
6937;SDS011;40040;42.706;23.372;2022-09-09T09:07:51;7.70;;;6.93;;
6937;SDS011;40040;42.706;23.372;2022-09-09T09:10:37;7.03;;;6.43;;
6937;SDS011;40040;42.706;23.372;2022-09-09T09:13:17;7.82;;;7.03;;
6937;SDS011;40040;42.706;23.372;2022-09-09T09:15:49;7.95;;;6.35;;
6937;SDS011;40040;42.706;23.372;2022-09-09T09:18:19;10.68;;;7.03;;
6937;SDS011;40040;42.706;23.372;2022-09-09T09:20:57;8.10;;;6.85;;
6937;SDS011;40040;42.706;23.372;2022-09-09T09:23:33;8.30;;;7.03;;
6937;SDS011;40040;42.706;23.372;2022-09-09T09:26:11;8.00;;;7.18;;
6937;SDS011;40040;42.706;23.372;2022-09-09T09:28:39;9.23;;;6.55;;
6937;SDS011;40040;42.706;23.372;2022-09-09T09:31:08;7.00;;;6.30;;
6937;SDS011;40040;42.706;23.372;2022-09-09T09:33:40;10.65;;;6.82;;
6937;SDS011;40040;42.706;23.372;2022-09-09T09:36:13;7.85;;;7.05;;
6937;SDS011;40040;42.706;23.372;2022-09-09T09:38:51;7.40;;;6.70;;
6937;SDS011;40040;42.706;23.372;2022-09-09T09:41:28;7.05;;;6.35;;
6937;SDS011;40040;42.706;23.372;2022-09-09T09:43:57;12.30;;;7.22;;
6937;SDS011;40040;42.706;23.372;2022-09-09T09:46:25;7.43;;;6.78;;
6937;SDS011;40040;42.706;23.372;2022-09-09T09:48:56;8.18;;;7.22;;
6937;SDS011;40040;42.706;23.372;2022-09-09T09:51:24;7.45;;;6.72;;
6937;SDS011;40040;42.706;23.372;2022-09-09T09:53:54;8.07;;;6.50;;
6937;SDS011;40040;42.706;23.372;2022-09-09T09:56:35;8.88;;;7.00;;
6937;SDS011;40040;42.706;23.372;2022-09-09T09:59:04;7.43;;;6.65;;
6937;SDS011;40040;42.706;23.372;2022-09-09T10:01:32;6.97;;;6.28;;
6937;SDS011;40040;42.706;23.372;2022-09-09T10:04:02;8.52;;;6.85;;
6937;SDS011;40040;42.706;23.372;2022-09-09T10:06:41;7.38;;;6.68;;
6937;SDS011;40040;42.706;23.372;2022-09-09T10:09:19;8.30;;;7.00;;
6937;SDS011;40040;42.706;23.372;2022-09-09T10:11:50;9.52;;;6.53;;
6937;SDS011;40040;42.706;23.372;2022-09-09T10:14:24;7.25;;;6.65;;
6937;SDS011;40040;42.706;23.372;2022-09-09T10:17:04;7.85;;;6.78;;
6937;SDS011;40040;42.706;23.372;2022-09-09T10:19:43;7.30;;;6.60;;
6937;SDS011;40040;42.706;23.372;2022-09-09T10:22:25;7.05;;;6.45;;
6937;SDS011;40040;42.706;23.372;2022-09-09T10:25:11;7.10;;;6.38;;
6937;SDS011;40040;42.706;23.372;2022-09-09T10:28:05;7.38;;;6.60;;
6937;SDS011;40040;42.706;23.372;2022-09-09T10:30:51;7.82;;;7.03;;
6937;SDS011;40040;42.706;23.372;2022-09-09T10:33:32;8.15;;;6.72;;
6937;SDS011;40040;42.706;23.372;2022-09-09T10:36:13;8.00;;;6.65;;
6937;SDS011;40040;42.706;23.372;2022-09-09T10:38:46;7.40;;;6.65;;
6937;SDS011;40040;42.706;23.372;2022-09-09T10:41:18;7.75;;;6.95;;
6937;SDS011;40040;42.706;23.372;2022-09-09T10:43:54;7.50;;;6.82;;
6937;SDS011;40040;42.706;23.372;2022-09-09T10:46:37;8.85;;;6.57;;
6937;SDS011;40040;42.706;23.372;2022-09-09T10:49:20;8.65;;;6.72;;
6937;SDS011;40040;42.706;23.372;2022-09-09T10:51:57;7.95;;;6.68;;
6937;SDS011;40040;42.706;23.372;2022-09-09T10:54:31;8.20;;;7.35;;
6937;SDS011;40040;42.706;23.372;2022-09-09T10:57:13;8.05;;;7.40;;
6937;SDS011;40040;42.706;23.372;2022-09-09T10:59:47;8.57;;;7.68;;
6937;SDS011;40040;42.706;23.372;2022-09-09T11:02:27;9.65;;;7.85;;
6937;SDS011;40040;42.706;23.372;2022-09-09T11:04:57;9.25;;;7.55;;
6937;SDS011;40040;42.706;23.372;2022-09-09T11:07:33;12.30;;;8.50;;
6937;SDS011;40040;42.706;23.372;2022-09-09T11:10:14;9.20;;;8.25;;
6937;SDS011;40040;42.706;23.372;2022-09-09T11:12:46;13.38;;;9.35;;
6937;SDS011;40040;42.706;23.372;2022-09-09T11:15:17;12.43;;;8.98;;
6937;SDS011;40040;42.706;23.372;2022-09-09T11:17:51;11.30;;;8.68;;
6937;SDS011;40040;42.706;23.372;2022-09-09T11:20:22;11.38;;;8.55;;
6937;SDS011;40040;42.706;23.372;2022-09-09T11:22:51;11.40;;;9.00;;
6937;SDS011;40040;42.706;23.372;2022-09-09T11:25:22;11.02;;;8.77;;
6937;SDS011;40040;42.706;23.372;2022-09-09T11:31:02;11.38;;;8.80;;
6937;SDS011;40040;42.706;23.372;2022-09-09T11:33:53;9.85;;;8.30;;
6937;SDS011;40040;42.706;23.372;2022-09-09T11:36:40;10.80;;;9.00;;
6937;SDS011;40040;42.706;23.372;2022-09-09T11:42:20;12.85;;;8.93;;
6937;SDS011;40040;42.706;23.372;2022-09-09T11:44:51;14.25;;;9.55;;
6937;SDS011;40040;42.706;23.372;2022-09-09T11:47:22;12.55;;;9.63;;
6937;SDS011;40040;42.706;23.372;2022-09-09T11:50:06;14.75;;;9.00;;
6937;SDS011;40040;42.706;23.372;2022-09-09T11:52:36;11.55;;;9.10;;
6937;SDS011;40040;42.706;23.372;2022-09-09T11:55:08;13.45;;;9.32;;
6937;SDS011;40040;42.706;23.372;2022-09-09T11:57:39;13.70;;;9.77;;
6937;SDS011;40040;42.706;23.372;2022-09-09T12:00:27;14.05;;;10.27;;
6937;SDS011;40040;42.706;23.372;2022-09-09T12:02:59;11.07;;;9.55;;
6937;SDS011;40040;42.706;23.372;2022-09-09T12:05:36;12.38;;;9.88;;
6937;SDS011;40040;42.706;23.372;2022-09-09T12:08:07;11.73;;;8.90;;
6937;SDS011;40040;42.706;23.372;2022-09-09T12:10:38;12.00;;;9.63;;
6937;SDS011;40040;42.706;23.372;2022-09-09T12:13:15;14.75;;;9.55;;
6937;SDS011;40040;42.706;23.372;2022-09-09T12:15:48;11.40;;;9.00;;
6937;SDS011;40040;42.706;23.372;2022-09-09T12:18:21;13.18;;;9.38;;
6937;SDS011;40040;42.706;23.372;2022-09-09T12:20:54;11.15;;;9.45;;
6937;SDS011;40040;42.706;23.372;2022-09-09T12:23:34;14.10;;;9.77;;
6937;SDS011;40040;42.706;23.372;2022-09-09T12:26:13;15.30;;;9.85;;
6937;SDS011;40040;42.706;23.372;2022-09-09T12:28:52;10.65;;;9.65;;
6937;SDS011;40040;42.706;23.372;2022-09-09T12:31:29;11.10;;;9.93;;
6937;SDS011;40040;42.706;23.372;2022-09-09T12:34:09;14.60;;;8.98;;
6937;SDS011;40040;42.706;23.372;2022-09-09T12:36:38;14.15;;;10.20;;
6937;SDS011;40040;42.706;23.372;2022-09-09T12:39:10;12.93;;;9.93;;
6937;SDS011;40040;42.706;23.372;2022-09-09T12:41:50;13.90;;;10.05;;
6937;SDS011;40040;42.706;23.372;2022-09-09T12:44:23;12.75;;;9.50;;
6937;SDS011;40040;42.706;23.372;2022-09-09T12:46:53;10.52;;;9.43;;
6937;SDS011;40040;42.706;23.372;2022-09-09T12:49:29;11.52;;;9.98;;
6937;SDS011;40040;42.706;23.372;2022-09-09T12:52:02;10.55;;;9.45;;
6937;SDS011;40040;42.706;23.372;2022-09-09T12:54:31;12.25;;;9.10;;
6937;SDS011;40040;42.706;23.372;2022-09-09T12:57:01;11.55;;;9.95;;
6937;SDS011;40040;42.706;23.372;2022-09-09T12:59:35;13.88;;;10.05;;
6937;SDS011;40040;42.706;23.372;2022-09-09T13:02:14;14.25;;;9.57;;
6937;SDS011;40040;42.706;23.372;2022-09-09T13:04:45;11.32;;;9.57;;
6937;SDS011;40040;42.706;23.372;2022-09-09T13:07:14;11.30;;;9.40;;
6937;SDS011;40040;42.706;23.372;2022-09-09T13:09:42;10.32;;;9.32;;
6937;SDS011;40040;42.706;23.372;2022-09-09T13:12:13;14.48;;;10.40;;
6937;SDS011;40040;42.706;23.372;2022-09-09T13:14:48;14.13;;;12.05;;
6937;SDS011;40040;42.706;23.372;2022-09-09T13:17:20;16.58;;;10.88;;
6937;SDS011;40040;42.706;23.372;2022-09-09T13:19:49;17.05;;;10.55;;
6937;SDS011;40040;42.706;23.372;2022-09-09T13:22:21;17.38;;;10.35;;
6937;SDS011;40040;42.706;23.372;2022-09-09T13:25:00;11.93;;;10.68;;
6937;SDS011;40040;42.706;23.372;2022-09-09T13:27:30;13.63;;;10.30;;
6937;SDS011;40040;42.706;23.372;2022-09-09T13:32:59;12.60;;;9.93;;
6937;SDS011;40040;42.706;23.372;2022-09-09T13:35:28;11.25;;;10.05;;
6937;SDS011;40040;42.706;23.372;2022-09-09T13:37:57;12.45;;;10.05;;
6937;SDS011;40040;42.706;23.372;2022-09-09T13:40:26;13.15;;;10.70;;
6937;SDS011;40040;42.706;23.372;2022-09-09T13:42:56;11.00;;;9.23;;
6937;SDS011;40040;42.706;23.372;2022-09-09T13:45:25;13.38;;;10.20;;
6937;SDS011;40040;42.706;23.372;2022-09-09T13:47:53;16.60;;;9.77;;
6937;SDS011;40040;42.706;23.372;2022-09-09T13:50:22;12.68;;;10.60;;
6937;SDS011;40040;42.706;23.372;2022-09-09T13:52:52;14.75;;;10.38;;
6937;SDS011;40040;42.706;23.372;2022-09-09T13:55:23;11.32;;;10.05;;
6937;SDS011;40040;42.706;23.372;2022-09-09T13:57:52;13.95;;;10.38;;
6937;SDS011;40040;42.706;23.372;2022-09-09T14:00:20;14.30;;;10.13;;
6937;SDS011;40040;42.706;23.372;2022-09-09T14:02:51;12.93;;;9.80;;
6937;SDS011;40040;42.706;23.372;2022-09-09T14:05:20;13.60;;;10.38;;
6937;SDS011;40040;42.706;23.372;2022-09-09T14:07:51;13.57;;;10.40;;
6937;SDS011;40040;42.706;23.372;2022-09-09T14:10:19;13.15;;;10.65;;
6937;SDS011;40040;42.706;23.372;2022-09-09T14:12:49;16.42;;;10.02;;
6937;SDS011;40040;42.706;23.372;2022-09-09T14:15:16;17.27;;;10.32;;
6937;SDS011;40040;42.706;23.372;2022-09-09T14:17:44;14.68;;;10.38;;
6937;SDS011;40040;42.706;23.372;2022-09-09T14:20:11;13.65;;;10.23;;
6937;SDS011;40040;42.706;23.372;2022-09-09T14:22:40;11.27;;;9.82;;
6937;SDS011;40040;42.706;23.372;2022-09-09T14:25:09;12.35;;;9.70;;
6937;SDS011;40040;42.706;23.372;2022-09-09T14:27:37;10.48;;;8.98;;
6937;SDS011;40040;42.706;23.372;2022-09-09T14:30:10;14.50;;;8.90;;
6937;SDS011;40040;42.706;23.372;2022-09-09T14:32:38;13.93;;;9.13;;
6937;SDS011;40040;42.706;23.372;2022-09-09T14:35:05;9.85;;;8.32;;
6937;SDS011;40040;42.706;23.372;2022-09-09T14:37:33;11.18;;;8.85;;
6937;SDS011;40040;42.706;23.372;2022-09-09T14:40:01;14.15;;;9.07;;
6937;SDS011;40040;42.706;23.372;2022-09-09T14:42:28;12.68;;;8.63;;
6937;SDS011;40040;42.706;23.372;2022-09-09T14:44:56;10.98;;;8.60;;
6937;SDS011;40040;42.706;23.372;2022-09-09T14:47:25;10.73;;;8.65;;
6937;SDS011;40040;42.706;23.372;2022-09-09T14:49:52;14.15;;;7.65;;
6937;SDS011;40040;42.706;23.372;2022-09-09T14:52:19;12.27;;;7.75;;
6937;SDS011;40040;42.706;23.372;2022-09-09T14:54:47;10.82;;;8.23;;
6937;SDS011;40040;42.706;23.372;2022-09-09T14:57:23;18.75;;;8.15;;
6937;SDS011;40040;42.706;23.372;2022-09-09T14:59:50;9.82;;;7.32;;
6937;SDS011;40040;42.706;23.372;2022-09-09T15:02:19;10.45;;;7.38;;
6937;SDS011;40040;42.706;23.372;2022-09-09T15:04:47;9.98;;;8.10;;
6937;SDS011;40040;42.706;23.372;2022-09-09T15:07:15;8.63;;;7.50;;
6937;SDS011;40040;42.706;23.372;2022-09-09T15:09:44;9.52;;;8.20;;
6937;SDS011;40040;42.706;23.372;2022-09-09T15:12:19;9.57;;;7.60;;
6937;SDS011;40040;42.706;23.372;2022-09-09T15:14:49;9.10;;;7.32;;